Time;durP1;ratioP1;P1;durP2;ratioP2;P2;SDS_P1;SDS_P2;PMS_P1;PMS_P2;Temp;Humidity;BMP_temperature;BMP_pressure;BME280_temperature;BME280_humidity;BME280_pressure;Samples;Min_cycle;Max_cycle;Signal;HPM_P1;HPM_P2
2022/07/01 00:02:00;;;;;;;0.10;0.10;;;13.90;99.90;;;;;;5098388;28;20021;-82
2022/07/01 00:04:27;;;;;;;0.00;0.00;;;13.90;99.90;;;;;;5098151;28;20039;-81
2022/07/01 00:06:54;;;;;;;0.73;0.38;;;13.90;99.90;;;;;;5098071;28;20342;-80
2022/07/01 00:09:21;;;;;;;0.00;0.00;;;13.90;99.90;;;;;;5098361;28;20050;-81
2022/07/01 00:11:46;;;;;;;0.00;0.00;;;14.00;99.90;;;;;;5096533;28;20087;-78
2022/07/01 00:14:12;;;;;;;0.00;0.00;;;14.00;99.90;;;;;;5097128;28;20058;-81
2022/07/01 00:16:38;;;;;;;0.00;0.00;;;14.00;99.90;;;;;;5081136;28;20036;-81
2022/07/01 00:19:04;;;;;;;0.00;0.00;;;14.10;99.90;;;;;;5097930;28;20028;-79
2022/07/01 00:21:30;;;;;;;0.00;0.00;;;14.00;99.90;;;;;;5098018;28;20044;-81
2022/07/01 00:23:56;;;;;;;0.55;0.38;;;14.10;99.90;;;;;;5097898;28;20028;-81
2022/07/01 00:26:21;;;;;;;0.47;0.20;;;14.10;99.90;;;;;;5067983;28;20037;-80
2022/07/01 00:28:47;;;;;;;0.00;0.00;;;14.10;99.90;;;;;;5077019;28;20041;-80
2022/07/01 00:31:13;;;;;;;0.00;0.00;;;14.10;99.90;;;;;;5060252;28;20155;-80
2022/07/01 00:33:38;;;;;;;4.38;1.45;;;14.30;99.90;;;;;;5059280;28;20381;-79
2022/07/01 00:36:04;;;;;;;0.05;0.05;;;14.20;99.90;;;;;;5076523;28;20041;-78
2022/07/01 00:38:30;;;;;;;0.00;0.00;;;14.10;99.90;;;;;;5076060;28;20146;-79
2022/07/01 00:40:56;;;;;;;0.00;0.00;;;14.10;99.90;;;;;;5075820;28;20488;-79
2022/07/01 00:43:25;;;;;;;0.10;0.05;;;14.20;99.90;;;;;;5058170;28;20502;-80
2022/07/01 00:45:52;;;;;;;0.00;0.00;;;14.20;99.90;;;;;;5075945;28;20066;-80
2022/07/01 00:48:21;;;;;;;0.00;0.00;;;14.10;99.90;;;;;;5076185;28;20484;-80
2022/07/01 00:50:46;;;;;;;0.17;0.17;;;14.50;99.90;;;;;;5073924;28;20036;-79
2022/07/01 00:53:15;;;;;;;0.17;0.15;;;14.10;99.90;;;;;;5074201;28;20067;-80
2022/07/01 00:55:42;;;;;;;0.00;0.00;;;14.40;99.90;;;;;;5074746;28;20525;-80
2022/07/01 00:58:08;;;;;;;0.60;0.57;;;14.20;99.90;;;;;;5074921;28;20377;-80
2022/07/01 01:00:36;;;;;;;0.65;0.35;;;14.20;99.90;;;;;;5075926;28;20094;-80
2022/07/01 01:03:01;;;;;;;0.00;0.00;;;14.20;99.90;;;;;;5074387;28;20055;-79
2022/07/01 01:05:27;;;;;;;0.00;0.00;;;14.30;99.90;;;;;;5056354;28;20037;-80
2022/07/01 01:07:53;;;;;;;1.33;0.10;;;14.20;99.90;;;;;;5074023;28;20044;-80
2022/07/01 01:10:19;;;;;;;0.00;0.00;;;14.30;99.90;;;;;;5073699;28;20043;-78
2022/07/01 01:12:45;;;;;;;0.00;0.00;;;14.50;99.90;;;;;;5074630;28;20547;-79
2022/07/01 01:15:18;;;;;;;0.00;0.00;;;14.30;99.90;;;;;;5074017;28;20043;-79
2022/07/01 01:17:43;;;;;;;0.00;0.00;;;14.30;99.90;;;;;;5073598;28;20048;-80
2022/07/01 01:20:18;;;;;;;0.00;0.00;;;14.20;99.90;;;;;;5073623;28;20037;-80
2022/07/01 01:22:44;;;;;;;0.13;0.00;;;14.30;99.90;;;;;;5074381;28;20071;-80
2022/07/01 01:25:10;;;;;;;0.40;0.40;;;14.80;99.90;;;;;;5077716;28;20037;-80
2022/07/01 01:27:37;;;;;;;0.00;0.00;;;14.20;99.90;;;;;;5043176;28;20071;-80
2022/07/01 01:30:05;;;;;;;0.80;0.45;;;14.20;99.90;;;;;;5077642;28;20076;-79
2022/07/01 01:32:31;;;;;;;0.00;0.00;;;14.10;99.90;;;;;;5077853;28;20083;-80
2022/07/01 01:34:56;;;;;;;0.00;0.00;;;14.10;99.90;;;;;;5077588;28;20072;-79
2022/07/01 01:37:22;;;;;;;0.00;0.00;;;14.10;99.90;;;;;;5077583;28;20052;-80
2022/07/01 01:39:47;;;;;;;0.00;0.00;;;14.00;99.90;;;;;;5077934;28;20043;-81
2022/07/01 01:42:13;;;;;;;0.00;0.00;;;14.00;99.90;;;;;;5077942;28;20040;-80
2022/07/01 01:44:39;;;;;;;0.00;0.00;;;13.90;99.90;;;;;;5080524;28;20096;-79
2022/07/01 01:47:04;;;;;;;0.08;0.08;;;13.90;99.90;;;;;;5088839;28;20044;-81
2022/07/01 01:49:30;;;;;;;0.08;0.00;;;13.90;99.90;;;;;;5070629;28;20053;-79
2022/07/01 01:51:59;;;;;;;0.00;0.00;;;13.90;99.90;;;;;;5088850;28;20045;-80
2022/07/01 01:54:25;;;;;;;0.00;0.00;;;13.90;99.90;;;;;;5079293;28;20036;-80
2022/07/01 01:56:51;;;;;;;0.00;0.00;;;13.90;99.90;;;;;;5078402;28;20706;-79
2022/07/01 01:59:17;;;;;;;0.00;0.00;;;13.90;99.90;;;;;;5078966;28;20045;-81
2022/07/01 02:01:43;;;;;;;0.20;0.20;;;13.90;99.90;;;;;;5078227;28;20507;-81
2022/07/01 02:04:09;;;;;;;0.00;0.00;;;13.90;99.90;;;;;;5077153;28;20037;-79
2022/07/01 02:06:34;;;;;;;0.15;0.10;;;13.90;99.90;;;;;;5076979;28;20479;-80
2022/07/01 02:09:00;;;;;;;0.00;0.00;;;13.90;99.90;;;;;;5059353;28;20429;-80
2022/07/01 02:11:26;;;;;;;0.00;0.00;;;13.90;99.90;;;;;;5077339;28;20044;-81
2022/07/01 02:13:52;;;;;;;0.00;0.00;;;13.90;99.90;;;;;;5077261;28;20048;-82
2022/07/01 02:16:18;;;;;;;0.00;0.00;;;13.90;99.90;;;;;;5076682;28;20131;-81
2022/07/01 02:18:44;;;;;;;0.00;0.00;;;13.90;99.90;;;;;;5077125;28;20072;-81
2022/07/01 02:21:10;;;;;;;0.75;0.55;;;14.10;99.90;;;;;;5059007;28;20092;-78
2022/07/01 02:23:35;;;;;;;0.20;0.15;;;14.00;99.90;;;;;;5058352;28;20044;-79
2022/07/01 02:26:01;;;;;;;0.00;0.00;;;14.00;99.90;;;;;;5076588;28;20082;-80
2022/07/01 02:28:26;;;;;;;0.00;0.00;;;13.90;99.90;;;;;;5076560;28;20040;-79
2022/07/01 02:30:52;;;;;;;0.30;0.17;;;14.00;99.90;;;;;;5076731;28;20043;-81
2022/07/01 02:33:18;;;;;;;0.10;0.10;;;13.90;99.90;;;;;;5076194;28;20114;-80
2022/07/01 02:35:43;;;;;;;0.70;0.32;;;14.80;99.90;;;;;;5041970;28;20044;-80
2022/07/01 02:38:09;;;;;;;0.00;0.00;;;13.90;99.90;;;;;;5058711;28;20043;-80
2022/07/01 02:40:39;;;;;;;0.40;0.10;;;13.90;99.90;;;;;;5076219;28;20037;-79
2022/07/01 02:43:06;;;;;;;2.72;1.00;;;14.40;99.90;;;;;;5075980;28;20521;-81
2022/07/01 02:45:32;;;;;;;0.03;0.03;;;14.20;99.90;;;;;;5076104;28;20041;-80
2022/07/01 02:47:57;;;;;;;0.10;0.05;;;13.80;99.90;;;;;;5075755;28;20111;-80
2022/07/01 02:50:23;;;;;;;0.22;0.22;;;13.70;99.90;;;;;;5058141;28;20495;-80
2022/07/01 02:52:48;;;;;;;0.00;0.00;;;13.70;99.90;;;;;;5076127;28;20048;-79
2022/07/01 02:55:14;;;;;;;0.20;0.20;;;13.60;99.90;;;;;;5075977;28;20476;-80
2022/07/01 02:57:41;;;;;;;0.00;0.00;;;13.60;99.90;;;;;;5075230;28;20068;-79
2022/07/01 03:00:10;;;;;;;0.00;0.00;;;13.60;99.90;;;;;;5057656;28;20052;-81
2022/07/01 03:02:36;;;;;;;0.10;0.00;;;13.60;99.90;;;;;;5075053;28;20056;-81
2022/07/01 03:05:03;;;;;;;0.00;0.00;;;13.60;99.90;;;;;;5075765;28;20479;-80
2022/07/01 03:07:29;;;;;;;0.28;0.20;;;13.50;99.90;;;;;;5075405;28;20049;-79
2022/07/01 03:09:55;;;;;;;0.00;0.00;;;13.50;99.90;;;;;;5075743;28;20047;-79
2022/07/01 03:12:28;;;;;;;0.15;0.08;;;13.50;99.90;;;;;;5075369;28;20041;-80
2022/07/01 03:14:59;;;;;;;0.00;0.00;;;13.50;99.90;;;;;;5075689;28;20545;-79
2022/07/01 03:17:26;;;;;;;0.32;0.30;;;13.50;99.90;;;;;;5057558;28;20115;-80
2022/07/01 03:19:52;;;;;;;0.00;0.00;;;13.50;99.90;;;;;;5075842;28;20051;-81
2022/07/01 03:22:20;;;;;;;0.13;0.10;;;13.40;99.90;;;;;;5058180;28;20048;-78
2022/07/01 03:24:46;;;;;;;0.00;0.00;;;13.40;99.90;;;;;;5085381;28;20044;-81
2022/07/01 03:27:11;;;;;;;0.00;0.00;;;13.40;99.90;;;;;;5067933;28;20058;-79
2022/07/01 03:29:37;;;;;;;0.08;0.08;;;13.40;99.90;;;;;;5084481;28;20068;-80
2022/07/01 03:32:03;;;;;;;0.00;0.00;;;13.40;99.90;;;;;;5077137;28;20045;-79
2022/07/01 03:34:29;;;;;;;0.00;0.00;;;13.50;99.90;;;;;;5076029;28;20062;-80
2022/07/01 03:36:54;;;;;;;0.20;0.20;;;13.50;99.90;;;;;;5076119;28;20048;-81
2022/07/01 03:39:20;;;;;;;0.43;0.43;;;13.60;99.90;;;;;;5075327;28;20040;-80
2022/07/01 03:41:46;;;;;;;0.00;0.00;;;13.60;99.90;;;;;;5075546;28;20051;-78
2022/07/01 03:44:12;;;;;;;0.00;0.00;;;13.60;99.90;;;;;;5074971;28;20032;-79
2022/07/01 03:46:37;;;;;;;0.00;0.00;;;14.10;99.90;;;;;;5074327;28;20130;-79
2022/07/01 03:49:04;;;;;;;0.45;0.25;;;13.60;99.90;;;;;;5075131;28;20045;-80
2022/07/01 03:51:30;;;;;;;0.08;0.00;;;13.70;99.90;;;;;;5074229;28;20551;-81
2022/07/01 03:56:39;;;;;;;1.75;0.52;;;13.70;99.90;;;;;;5074201;28;20064;-79
2022/07/01 03:59:05;;;;;;;0.00;0.00;;;13.80;99.90;;;;;;5074521;28;20525;-78
2022/07/01 04:01:31;;;;;;;0.60;0.10;;;13.70;99.90;;;;;;5074871;28;20048;-78
2022/07/01 04:03:56;;;;;;;1.30;0.80;;;13.70;99.90;;;;;;5074496;28;20047;-79
2022/07/01 04:06:22;;;;;;;0.00;0.00;;;13.80;99.90;;;;;;5074600;28;20040;-79
2022/07/01 04:08:49;;;;;;;0.65;0.47;;;13.80;99.90;;;;;;5074851;28;20100;-79
2022/07/01 04:11:15;;;;;;;0.63;0.47;;;13.80;99.90;;;;;;5075140;28;20040;-80
2022/07/01 04:13:44;;;;;;;0.00;0.00;;;13.80;99.90;;;;;;5074743;28;20115;-80
2022/07/01 04:16:10;;;;;;;0.22;0.20;;;13.80;99.90;;;;;;5074443;28;20048;-79
2022/07/01 04:18:36;;;;;;;0.20;0.20;;;13.80;99.90;;;;;;5056952;28;20049;-80
2022/07/01 04:23:45;;;;;;;0.10;0.10;;;13.80;99.90;;;;;;5074525;28;20045;-80
2022/07/01 04:26:11;;;;;;;0.43;0.17;;;13.90;99.90;;;;;;5056254;28;20067;-78
2022/07/01 04:28:37;;;;;;;0.25;0.20;;;13.90;99.90;;;;;;5074407;28;20396;-79
2022/07/01 04:31:02;;;;;;;1.00;0.82;;;14.10;99.90;;;;;;5056536;28;20167;-79
2022/07/01 04:33:28;;;;;;;0.45;0.40;;;13.90;99.90;;;;;;5075063;28;20415;-78
2022/07/01 04:35:53;;;;;;;0.10;0.10;;;14.10;99.90;;;;;;5074730;28;20043;-80
2022/07/01 04:38:19;;;;;;;0.80;0.38;;;14.00;99.90;;;;;;5073743;28;20072;-79
2022/07/01 04:41:58;;;;;;;0.75;0.28;;;14.40;99.90;;;;;;5073420;28;20041;-78
2022/07/01 04:43:30;;;;;;;0.35;0.30;;;14.00;99.90;;;;;;5073605;28;20140;-79
2022/07/01 04:45:56;;;;;;;0.98;0.75;;;14.10;99.90;;;;;;5055570;28;20064;-77
2022/07/01 04:48:21;;;;;;;0.60;0.60;;;14.10;99.90;;;;;;5074680;28;20044;-78
2022/07/01 04:50:47;;;;;;;1.05;0.95;;;14.20;99.90;;;;;;5056279;28;20121;-79
2022/07/01 04:53:13;;;;;;;0.30;0.20;;;14.10;99.90;;;;;;5073750;28;20041;-78
2022/07/01 04:55:39;;;;;;;1.30;0.82;;;14.10;99.90;;;;;;5074069;28;20049;-79
2022/07/01 04:58:05;;;;;;;1.33;0.60;;;14.30;99.90;;;;;;5072947;28;20500;-80
2022/07/01 05:00:31;;;;;;;0.65;0.50;;;14.20;99.90;;;;;;5073686;28;20048;-79
2022/07/01 05:02:56;;;;;;;0.35;0.35;;;14.20;99.90;;;;;;5078132;28;20055;-78
2022/07/01 05:05:22;;;;;;;0.22;0.22;;;14.20;99.90;;;;;;5081981;28;20111;-78
2022/07/01 05:07:48;;;;;;;0.70;0.65;;;14.20;99.90;;;;;;5081850;28;20048;-79
2022/07/01 05:10:13;;;;;;;0.30;0.30;;;14.20;99.90;;;;;;5059151;28;20074;-78
2022/07/01 05:12:39;;;;;;;4.97;1.05;;;14.20;99.90;;;;;;5038913;28;20079;-79
2022/07/01 05:15:06;;;;;;;1.75;1.52;;;14.20;99.90;;;;;;5056100;28;20555;-80
2022/07/01 05:23:04;;;;;;;0.57;0.52;;;14.30;99.90;;;;;;5055695;28;20061;-80
2022/07/01 05:25:29;;;;;;;1.92;1.80;;;14.60;99.90;;;;;;5073519;28;20049;-79
2022/07/01 05:27:55;;;;;;;2.22;0.82;;;14.30;99.90;;;;;;5073595;28;20051;-80
2022/07/01 05:30:21;;;;;;;14.70;1.08;;;14.30;99.90;;;;;;5072821;28;20073;-80
2022/07/01 05:32:47;;;;;;;2.60;1.95;;;14.40;99.90;;;;;;5073788;28;20079;-77
2022/07/01 05:35:14;;;;;;;1.15;0.82;;;14.40;99.90;;;;;;5076890;28;20041;-78
2022/07/01 05:37:40;;;;;;;2.47;1.58;;;14.40;99.90;;;;;;5074572;28;20048;-79
2022/07/01 05:40:06;;;;;;;4.93;1.80;;;14.50;99.90;;;;;;5072854;28;20072;-79
2022/07/01 05:42:32;;;;;;;2.22;1.67;;;14.50;99.90;;;;;;5074899;28;20095;-78
2022/07/01 05:44:57;;;;;;;2.75;1.75;;;14.60;99.90;;;;;;5074351;28;20633;-78
2022/07/01 05:47:23;;;;;;;3.80;2.50;;;14.60;99.90;;;;;;5072671;28;20037;-78
2022/07/01 05:49:48;;;;;;;4.20;2.58;;;15.00;99.90;;;;;;5072678;28;20044;-78
2022/07/01 05:52:14;;;;;;;4.30;1.83;;;14.90;99.90;;;;;;5072897;28;20047;-78
2022/07/01 05:54:40;;;;;;;2.13;1.63;;;14.80;99.90;;;;;;5072992;28;20044;-79
2022/07/01 05:57:05;;;;;;;2.30;2.05;;;14.80;99.90;;;;;;5072191;28;20558;-79
2022/07/01 05:59:31;;;;;;;1.73;1.27;;;15.00;99.90;;;;;;5071883;28;20120;-76
2022/07/01 06:01:58;;;;;;;2.25;1.83;;;15.00;99.90;;;;;;5071501;28;20102;-78
2022/07/01 06:04:23;;;;;;;2.15;1.35;;;15.00;99.90;;;;;;5071998;28;20047;-79
2022/07/01 06:06:49;;;;;;;2.90;2.30;;;15.30;99.90;;;;;;5072059;28;20045;-80
2022/07/01 06:09:14;;;;;;;14.82;2.30;;;15.30;99.90;;;;;;5073328;28;20043;-79
2022/07/01 06:11:40;;;;;;;5.35;2.17;;;15.30;99.90;;;;;;5075522;28;20094;-78
2022/07/01 06:14:06;;;;;;;2.47;1.95;;;15.30;99.90;;;;;;5075481;28;20044;-78
2022/07/01 06:16:31;;;;;;;3.30;2.65;;;15.40;99.90;;;;;;5040538;28;20052;-78
2022/07/01 06:18:57;;;;;;;2.25;1.77;;;15.50;99.90;;;;;;5075350;28;20044;-78
2022/07/01 06:21:22;;;;;;;4.82;2.72;;;15.50;99.90;;;;;;5057545;28;20037;-77
2022/07/01 06:23:48;;;;;;;3.75;2.33;;;15.50;99.90;;;;;;5057666;28;20052;-78
2022/07/01 06:26:14;;;;;;;3.63;1.95;;;15.50;99.90;;;;;;5075293;28;20045;-79
2022/07/01 06:28:40;;;;;;;4.93;2.58;;;15.40;99.90;;;;;;5040546;28;20167;-78
2022/07/01 06:31:06;;;;;;;2.35;1.63;;;15.40;99.90;;;;;;5075613;28;20076;-78
2022/07/01 06:33:31;;;;;;;7.55;2.60;;;15.40;99.90;;;;;;5075244;28;20105;-78
2022/07/01 06:35:57;;;;;;;1.95;1.45;;;15.50;99.90;;;;;;5075948;28;20036;-79
2022/07/01 06:38:23;;;;;;;3.67;2.80;;;15.60;99.90;;;;;;5058263;28;20040;-78
2022/07/01 06:43:44;;;;;;;3.47;0.98;;;15.60;99.90;;;;;;5058105;28;20495;-79
2022/07/01 06:46:10;;;;;;;6.28;2.72;;;15.60;99.90;;;;;;5088395;28;20329;-80
2022/07/01 06:48:36;;;;;;;1.90;1.58;;;15.60;99.90;;;;;;5050733;28;20083;-77
2022/07/01 06:51:02;;;;;;;8.63;2.45;;;15.70;99.90;;;;;;5076095;28;20072;-78
2022/07/01 06:53:28;;;;;;;1.25;1.13;;;15.80;99.90;;;;;;5058076;28;20124;-77
2022/07/01 06:55:54;;;;;;;1.88;1.13;;;15.90;99.90;;;;;;5077010;28;20072;-77
2022/07/01 06:58:19;;;;;;;3.30;2.40;;;16.00;99.90;;;;;;5075952;28;20176;-79
2022/07/01 07:00:45;;;;;;;3.08;2.00;;;16.00;99.90;;;;;;5075902;28;20051;-78
2022/07/01 07:03:11;;;;;;;1.27;0.93;;;16.20;99.90;;;;;;5075099;28;20422;-77
2022/07/01 07:05:37;;;;;;;1.55;1.45;;;16.10;99.90;;;;;;5075175;28;20498;-77
2022/07/01 07:08:03;;;;;;;3.17;1.52;;;16.10;99.90;;;;;;5074908;28;20041;-79
2022/07/01 07:10:29;;;;;;;5.28;2.10;;;16.10;99.90;;;;;;5074917;28;20102;-77
2022/07/01 07:12:55;;;;;;;1.80;1.45;;;16.10;99.90;;;;;;5073746;28;20075;-77
2022/07/01 07:15:20;;;;;;;7.03;3.38;;;16.00;99.90;;;;;;5046757;28;20017;-78
2022/07/01 07:17:46;;;;;;;4.45;1.95;;;16.00;99.90;;;;;;5098930;28;20020;-81
2022/07/01 07:20:11;;;;;;;3.95;1.33;;;15.90;99.90;;;;;;5098527;28;20032;-80
2022/07/01 07:22:37;;;;;;;3.50;2.50;;;16.00;99.90;;;;;;5098984;28;20025;-79
2022/07/01 07:25:03;;;;;;;0.57;0.57;;;15.90;99.90;;;;;;5075851;28;20068;-78
2022/07/01 07:27:28;;;;;;;1.25;1.15;;;15.90;99.90;;;;;;5075609;28;20044;-78
2022/07/01 07:29:54;;;;;;;2.70;1.90;;;15.90;99.90;;;;;;5076581;28;20040;-79
2022/07/01 07:32:20;;;;;;;2.67;1.77;;;16.10;99.90;;;;;;5098378;28;20021;-81
2022/07/01 07:34:45;;;;;;;2.40;1.17;;;16.00;99.90;;;;;;5098744;28;20198;-81
2022/07/01 07:37:11;;;;;;;1.42;0.93;;;16.00;99.90;;;;;;5098899;28;20123;-81
2022/07/01 07:39:37;;;;;;;6.22;2.85;;;16.00;99.90;;;;;;5098801;28;20203;-80
2022/07/01 07:42:04;;;;;;;0.77;0.70;;;16.90;99.90;;;;;;5098715;28;20020;-80
2022/07/01 07:44:29;;;;;;;2.70;1.35;;;15.90;99.90;;;;;;5098807;28;20039;-81
2022/07/01 07:46:56;;;;;;;1.27;1.00;;;15.90;99.90;;;;;;5098597;28;20021;-81
2022/07/01 07:49:23;;;;;;;1.67;0.98;;;16.00;99.90;;;;;;5098528;28;20043;-81
2022/07/01 07:51:49;;;;;;;5.72;1.83;;;16.10;99.90;;;;;;5098302;28;20033;-80
2022/07/01 07:54:14;;;;;;;3.60;2.38;;;16.00;99.90;;;;;;5098335;28;20032;-78
2022/07/01 07:56:40;;;;;;;2.90;1.40;;;16.00;99.90;;;;;;5097982;28;20047;-81
2022/07/01 07:59:06;;;;;;;3.40;1.67;;;16.20;99.90;;;;;;5098253;28;20036;-81
2022/07/01 08:01:31;;;;;;;1.88;1.35;;;16.50;99.90;;;;;;5097796;28;20048;-78
2022/07/01 08:03:57;;;;;;;1.52;1.00;;;16.80;99.90;;;;;;5095382;28;20055;-76
2022/07/01 08:06:22;;;;;;;3.35;2.10;;;17.10;99.90;;;;;;5076284;28;20044;-77
2022/07/01 08:08:48;;;;;;;1.65;1.13;;;17.00;99.90;;;;;;5056560;28;20368;-77
2022/07/01 08:11:14;;;;;;;1.05;0.95;;;17.30;99.90;;;;;;5075312;28;20036;-77
2022/07/01 08:13:39;;;;;;;2.00;0.95;;;17.10;99.90;;;;;;5073993;28;20036;-77
2022/07/01 08:16:05;;;;;;;3.00;0.93;;;16.90;99.90;;;;;;5073276;28;20086;-75
2022/07/01 08:18:31;;;;;;;3.20;1.75;;;17.00;99.90;;;;;;5072907;28;20044;-76
2022/07/01 08:20:57;;;;;;;1.05;0.95;;;17.20;99.90;;;;;;5074038;28;20051;-77
2022/07/01 08:23:22;;;;;;;2.78;1.90;;;17.00;99.90;;;;;;5075249;28;20068;-76
2022/07/01 08:25:51;;;;;;;1.50;1.38;;;17.30;99.90;;;;;;5076853;28;20040;-77
2022/07/01 08:28:17;;;;;;;1.75;1.42;;;17.70;99.90;;;;;;5075770;28;20102;-77
2022/07/01 08:30:45;;;;;;;2.47;1.23;;;17.80;99.90;;;;;;5072897;28;20040;-76
2022/07/01 08:33:11;;;;;;;1.77;0.30;;;17.90;99.90;;;;;;5072632;28;20036;-76
2022/07/01 08:35:37;;;;;;;2.25;1.40;;;17.90;99.90;;;;;;5054789;28;20094;-76
2022/07/01 08:38:03;;;;;;;0.63;0.50;;;17.90;99.90;;;;;;5072777;28;20123;-76
2022/07/01 08:40:30;;;;;;;3.17;1.92;;;18.10;99.90;;;;;;5072727;28;20037;-77
2022/07/01 08:43:04;;;;;;;2.88;1.30;;;18.20;99.90;;;;;;5072526;28;20054;-76
2022/07/01 08:45:32;;;;;;;0.63;0.52;;;18.40;99.90;;;;;;5072534;28;20051;-76
2022/07/01 08:48:02;;;;;;;2.17;0.98;;;18.70;99.90;;;;;;5072414;28;20079;-76
2022/07/01 08:50:29;;;;;;;1.25;1.15;;;19.00;99.90;;;;;;5072573;28;20048;-77
2022/07/01 08:52:55;;;;;;;3.63;1.65;;;20.50;99.90;;;;;;5072294;28;20119;-75
2022/07/01 08:55:21;;;;;;;0.55;0.55;;;20.80;99.90;;;;;;5072094;28;20155;-76
2022/07/01 08:57:48;;;;;;;1.15;0.95;;;21.10;99.90;;;;;;5071697;28;20131;-76
2022/07/01 09:00:14;;;;;;;3.22;1.13;;;21.00;99.90;;;;;;5072072;28;20044;-77
2022/07/01 09:02:56;;;;;;;0.47;0.47;;;20.90;99.90;;;;;;5071813;28;20036;-75
2022/07/01 09:05:23;;;;;;;2.08;1.15;;;20.90;99.90;;;;;;5072009;28;20044;-76
2022/07/01 09:07:55;;;;;;;1.00;0.63;;;21.40;99.90;;;;;;5071652;28;20487;-76
2022/07/01 09:10:21;;;;;;;0.98;0.88;;;21.30;99.90;;;;;;5071996;28;20124;-76
2022/07/01 09:12:47;;;;;;;0.93;0.77;;;20.80;99.90;;;;;;5072263;28;20436;-76
2022/07/01 09:15:27;;;;;;;1.83;1.17;;;21.10;99.90;;;;;;5071695;28;20483;-76
2022/07/01 09:18:05;;;;;;;1.83;0.70;;;21.60;99.90;;;;;;5072919;28;20048;-76
2022/07/01 09:20:33;;;;;;;0.75;0.68;;;22.20;99.90;;;;;;5072236;28;20045;-74
2022/07/01 09:23:20;;;;;;;0.28;0.28;;;22.40;99.90;;;;;;5053615;28;20399;-76
2022/07/01 09:25:51;;;;;;;0.30;0.30;;;23.40;99.90;;;;;;5071883;28;20040;-77
2022/07/01 09:28:21;;;;;;;0.93;0.63;;;24.10;99.90;;;;;;5071653;28;20052;-76
2022/07/01 09:30:49;;;;;;;0.43;0.43;;;24.60;99.90;;;;;;5071913;28;20040;-77
2022/07/01 09:33:24;;;;;;;0.30;0.30;;;24.60;99.90;;;;;;5072107;28;20106;-76
2022/07/01 09:35:51;;;;;;;0.40;0.20;;;23.80;99.90;;;;;;5071467;28;20426;-75
2022/07/01 09:38:19;;;;;;;0.30;0.30;;;23.50;99.90;;;;;;5071772;28;20585;-75
2022/07/01 09:40:48;;;;;;;0.75;0.55;;;23.00;99.90;;;;;;5071861;28;20114;-75
2022/07/01 09:43:16;;;;;;;0.35;0.30;;;22.70;99.90;;;;;;5072437;28;20094;-75
2022/07/01 09:45:55;;;;;;;0.25;0.25;;;22.40;99.90;;;;;;5076150;28;20462;-76
2022/07/01 09:48:23;;;;;;;0.82;0.63;;;21.80;99.90;;;;;;5076026;28;20041;-73
2022/07/01 09:50:49;;;;;;;1.55;1.17;;;21.50;99.90;;;;;;5075846;28;20090;-76
2022/07/01 09:53:15;;;;;;;0.15;0.15;;;21.30;99.90;;;;;;5057968;28;20040;-75
2022/07/01 09:55:41;;;;;;;0.25;0.22;;;21.40;99.90;;;;;;5075767;28;20098;-75
2022/07/01 09:58:07;;;;;;;0.77;0.47;;;21.20;99.90;;;;;;5074959;28;20472;-75
2022/07/01 10:00:36;;;;;;;1.52;1.27;;;21.50;99.90;;;;;;5075284;28;20044;-75
2022/07/01 10:03:02;;;;;;;0.88;0.55;;;21.60;99.90;;;;;;5075464;28;20045;-76
2022/07/01 10:05:31;;;;;;;0.30;0.30;;;21.80;99.90;;;;;;5075344;28;20400;-75
2022/07/01 10:08:17;;;;;;;0.20;0.20;;;22.00;99.90;;;;;;5079074;28;20058;-76
2022/07/01 10:10:51;;;;;;;1.58;0.65;;;21.70;99.90;;;;;;5079495;28;20487;-76
2022/07/01 10:13:21;;;;;;;0.85;0.38;;;21.60;99.90;;;;;;5058207;28;20407;-76
2022/07/01 10:15:48;;;;;;;0.35;0.28;;;21.40;99.90;;;;;;5057315;28;20055;-74
2022/07/01 10:18:23;;;;;;;0.75;0.75;;;21.30;99.90;;;;;;5075100;28;20056;-75
2022/07/01 10:20:50;;;;;;;1.00;0.52;;;21.30;99.90;;;;;;5074808;28;20045;-75
2022/07/01 10:23:15;;;;;;;0.52;0.47;;;21.30;99.90;;;;;;5074974;28;20048;-75
2022/07/01 10:25:43;;;;;;;0.40;0.30;;;21.60;99.90;;;;;;5075329;28;20036;-75
2022/07/01 10:28:25;;;;;;;1.17;0.30;;;21.90;99.90;;;;;;5075059;28;20045;-75
2022/07/01 10:30:59;;;;;;;0.30;0.28;;;22.10;99.90;;;;;;5074825;28;20056;-75
2022/07/01 10:33:38;;;;;;;0.85;0.20;;;22.10;99.90;;;;;;5057254;28;20101;-74
2022/07/01 10:36:05;;;;;;;0.10;0.10;;;21.90;99.90;;;;;;5075357;28;20040;-76
2022/07/01 10:38:30;;;;;;;0.10;0.10;;;21.90;99.90;;;;;;5057148;28;20048;-75
2022/07/01 10:41:09;;;;;;;0.55;0.40;;;21.90;99.90;;;;;;5074960;28;20127;-75
2022/07/01 10:43:35;;;;;;;0.73;0.57;;;21.50;99.90;;;;;;5074876;28;20483;-77
2022/07/01 10:46:01;;;;;;;1.77;1.02;;;21.00;99.90;;;;;;5074899;28;20044;-75
2022/07/01 10:48:31;;;;;;;0.38;0.20;;;20.70;99.90;;;;;;5075130;28;20066;-74
2022/07/01 10:50:57;;;;;;;0.28;0.25;;;20.70;99.90;;;;;;5056699;28;20059;-75
2022/07/01 10:53:23;;;;;;;0.30;0.30;;;21.30;99.90;;;;;;5074450;28;20040;-75
2022/07/01 10:55:53;;;;;;;13.57;1.40;;;21.60;99.90;;;;;;5072879;28;20049;-76
2022/07/01 10:58:34;;;;;;;0.38;0.38;;;21.60;99.90;;;;;;5054415;28;20130;-75
2022/07/01 11:01:00;;;;;;;1.08;0.30;;;21.70;99.90;;;;;;5054681;28;20385;-76
2022/07/01 11:03:26;;;;;;;0.00;0.00;;;21.70;99.90;;;;;;5054427;28;20095;-75
2022/07/01 11:05:55;;;;;;;0.25;0.10;;;21.80;99.90;;;;;;5054372;28;20095;-75
2022/07/01 11:08:21;;;;;;;0.10;0.10;;;22.00;99.90;;;;;;5036295;28;20511;-75
2022/07/01 11:10:50;;;;;;;1.33;0.55;;;22.20;99.10;;;;;;5036307;28;20044;-74
2022/07/01 11:13:16;;;;;;;0.00;0.00;;;22.40;97.80;;;;;;5036617;28;20052;-78
2022/07/01 11:15:46;;;;;;;1.15;0.55;;;23.00;96.00;;;;;;5054655;28;20049;-76
2022/07/01 11:18:13;;;;;;;1.00;0.43;;;23.80;90.00;;;;;;5036495;28;20048;-73
2022/07/01 11:20:39;;;;;;;1.20;0.30;;;24.40;74.70;;;;;;5054109;28;20055;-74
2022/07/01 11:23:04;;;;;;;0.38;0.38;;;24.00;63.50;;;;;;5054176;28;20127;-75
2022/07/01 11:25:30;;;;;;;5.22;0.70;;;23.60;72.30;;;;;;5054174;28;20546;-75
2022/07/01 11:27:56;;;;;;;0.80;0.45;;;24.10;80.50;;;;;;5036543;28;20036;-75
2022/07/01 11:30:23;;;;;;;0.00;0.00;;;24.60;64.00;;;;;;5054116;28;20095;-75
2022/07/01 11:32:57;;;;;;;0.55;0.55;;;24.40;57.70;;;;;;5054692;28;20118;-77
2022/07/01 11:41:25;;;;;;;0.20;0.10;;;22.70;63.40;;;;;;5065370;28;20049;-75
2022/07/01 11:43:51;;;;;;;0.35;0.35;;;23.70;74.30;;;;;;5048936;28;20063;-75
2022/07/01 11:46:18;;;;;;;0.00;0.00;;;23.80;66.80;;;;;;5061927;28;20064;-75
2022/07/01 11:48:51;;;;;;;0.17;0.15;;;23.30;63.40;;;;;;5055209;28;20063;-75
2022/07/01 11:51:19;;;;;;;0.30;0.17;;;22.40;85.40;;;;;;5055203;28;20045;-74
2022/07/01 11:53:50;;;;;;;0.00;0.00;;;22.00;91.60;;;;;;5054293;28;20044;-77
2022/07/01 11:56:17;;;;;;;0.00;0.00;;;21.30;93.50;;;;;;5056938;28;20408;-75
2022/07/01 11:58:44;;;;;;;0.80;0.57;;;20.80;96.20;;;;;;5056014;28;20060;-76
2022/07/01 12:01:10;;;;;;;0.32;0.25;;;20.60;99.90;;;;;;5073518;28;20044;-75
2022/07/01 12:03:37;;;;;;;0.65;0.55;;;20.50;99.90;;;;;;5073847;28;20044;-75
2022/07/01 12:06:04;;;;;;;0.10;0.10;;;20.40;99.90;;;;;;5073721;28;20076;-74
2022/07/01 12:08:30;;;;;;;0.47;0.30;;;20.50;99.90;;;;;;5074349;28;20475;-75
2022/07/01 12:10:59;;;;;;;0.00;0.00;;;21.20;99.90;;;;;;5073960;28;20068;-76
2022/07/01 12:13:26;;;;;;;0.35;0.20;;;22.70;96.10;;;;;;5056497;28;20094;-74
2022/07/01 12:15:52;;;;;;;0.10;0.10;;;22.40;91.40;;;;;;5057217;28;20119;-76
2022/07/01 12:18:17;;;;;;;0.13;0.03;;;22.30;94.40;;;;;;5074350;28;20063;-76
2022/07/01 12:20:52;;;;;;;0.00;0.00;;;23.20;94.20;;;;;;5075190;28;20052;-75
2022/07/01 12:23:18;;;;;;;4.03;0.88;;;24.60;69.00;;;;;;5090818;28;20036;-78
2022/07/01 12:25:51;;;;;;;0.00;0.00;;;25.50;54.70;;;;;;5097845;28;20032;-76
2022/07/01 12:28:30;;;;;;;0.38;0.20;;;24.60;50.40;;;;;;5097946;28;20032;-75
2022/07/01 12:31:07;;;;;;;0.10;0.10;;;23.70;69.20;;;;;;5097501;28;20036;-78
2022/07/01 12:33:37;;;;;;;0.00;0.00;;;23.00;64.30;;;;;;5097448;28;20049;-80
2022/07/01 12:36:04;;;;;;;0.52;0.28;;;23.40;59.40;;;;;;5097298;28;20112;-78
2022/07/01 12:38:30;;;;;;;0.00;0.00;;;24.30;42.80;;;;;;5097263;28;20024;-77
2022/07/01 12:40:56;;;;;;;0.40;0.40;;;25.30;30.70;;;;;;5097218;28;20092;-77
2022/07/01 12:43:29;;;;;;;0.00;0.00;;;26.30;19.70;;;;;;5092561;28;20041;-75
2022/07/01 12:45:55;;;;;;;0.10;0.10;;;25.80;13.00;;;;;;5093338;28;20036;-78
2022/07/01 12:48:21;;;;;;;0.10;0.08;;;25.00;13.60;;;;;;5096128;28;20096;-74
2022/07/01 12:50:47;;;;;;;0.00;0.00;;;25.10;15.40;;;;;;5077761;28;20064;-75
2022/07/01 12:53:19;;;;;;;0.15;0.15;;;25.20;17.30;;;;;;5075241;28;20565;-75
2022/07/01 12:55:56;;;;;;;0.00;0.00;;;25.80;12.70;;;;;;5057063;28;20044;-74
2022/07/01 12:58:26;;;;;;;0.00;0.00;;;26.20;12.90;;;;;;5054634;28;20041;-74
2022/07/01 13:00:56;;;;;;;1.55;0.65;;;26.80;10.80;;;;;;5036199;28;20044;-75
2022/07/01 13:03:27;;;;;;;0.80;0.32;;;27.00;1.40;;;;;;5053857;28;20472;-73
2022/07/01 13:05:54;;;;;;;2.08;0.57;;;25.40;2.70;;;;;;5053495;28;20044;-74
2022/07/01 13:08:19;;;;;;;0.32;0.20;;;24.40;13.20;;;;;;5034813;28;20052;-73